sensor_id;sensor_type;location;lat;lon;timestamp;pressure;altitude;pressure_sealevel;temperature
23208;BMP180;11773;52.570;13.052;2024-01-16T00:01:44;99654.00;;;7.30
23208;BMP180;11773;52.570;13.052;2024-01-16T00:04:13;99658.00;;;7.30
23208;BMP180;11773;52.570;13.052;2024-01-16T00:06:43;99663.00;;;7.30
23208;BMP180;11773;52.570;13.052;2024-01-16T00:09:14;99678.00;;;7.30
23208;BMP180;11773;52.570;13.052;2024-01-16T00:11:44;99667.00;;;7.30
23208;BMP180;11773;52.570;13.052;2024-01-16T00:14:14;99650.00;;;7.20
23208;BMP180;11773;52.570;13.052;2024-01-16T00:16:45;99656.00;;;7.20
23208;BMP180;11773;52.570;13.052;2024-01-16T00:19:16;99647.00;;;7.20
23208;BMP180;11773;52.570;13.052;2024-01-16T00:21:46;99651.00;;;7.20
23208;BMP180;11773;52.570;13.052;2024-01-16T00:24:16;99668.00;;;7.20
23208;BMP180;11773;52.570;13.052;2024-01-16T00:26:45;99667.00;;;7.10
23208;BMP180;11773;52.570;13.052;2024-01-16T00:29:15;99684.00;;;7.10
23208;BMP180;11773;52.570;13.052;2024-01-16T00:31:45;99702.00;;;7.10
23208;BMP180;11773;52.570;13.052;2024-01-16T00:34:14;99721.00;;;7.10
23208;BMP180;11773;52.570;13.052;2024-01-16T00:36:44;99714.00;;;7.10
23208;BMP180;11773;52.570;13.052;2024-01-16T00:39:14;99700.00;;;7.00
23208;BMP180;11773;52.570;13.052;2024-01-16T00:41:44;99719.00;;;6.90
23208;BMP180;11773;52.570;13.052;2024-01-16T00:44:13;99730.00;;;6.90
23208;BMP180;11773;52.570;13.052;2024-01-16T00:46:43;99743.00;;;6.80
23208;BMP180;11773;52.570;13.052;2024-01-16T00:49:13;99751.00;;;6.80
23208;BMP180;11773;52.570;13.052;2024-01-16T00:51:44;99757.00;;;6.80
23208;BMP180;11773;52.570;13.052;2024-01-16T00:54:13;99754.00;;;6.70
23208;BMP180;11773;52.570;13.052;2024-01-16T00:56:43;99755.00;;;6.70
23208;BMP180;11773;52.570;13.052;2024-01-16T00:59:13;99749.00;;;6.60
23208;BMP180;11773;52.570;13.052;2024-01-16T01:01:42;99742.00;;;6.60
23208;BMP180;11773;52.570;13.052;2024-01-16T01:04:12;99768.00;;;6.50
23208;BMP180;11773;52.570;13.052;2024-01-16T01:06:41;99773.00;;;6.50
23208;BMP180;11773;52.570;13.052;2024-01-16T01:09:11;99762.00;;;6.40
23208;BMP180;11773;52.570;13.052;2024-01-16T01:11:41;99764.00;;;6.40
23208;BMP180;11773;52.570;13.052;2024-01-16T01:14:10;99770.00;;;6.30
23208;BMP180;11773;52.570;13.052;2024-01-16T01:16:40;99769.00;;;6.30
23208;BMP180;11773;52.570;13.052;2024-01-16T01:19:10;99781.00;;;6.30
23208;BMP180;11773;52.570;13.052;2024-01-16T01:21:41;99794.00;;;6.30
23208;BMP180;11773;52.570;13.052;2024-01-16T01:24:10;99773.00;;;6.30
23208;BMP180;11773;52.570;13.052;2024-01-16T01:26:44;99769.00;;;6.20
23208;BMP180;11773;52.570;13.052;2024-01-16T01:29:14;99769.00;;;6.20
23208;BMP180;11773;52.570;13.052;2024-01-16T01:31:46;99775.00;;;6.20
23208;BMP180;11773;52.570;13.052;2024-01-16T01:34:17;99774.00;;;6.20
23208;BMP180;11773;52.570;13.052;2024-01-16T01:36:46;99787.00;;;6.20
23208;BMP180;11773;52.570;13.052;2024-01-16T01:39:16;99775.00;;;6.20
23208;BMP180;11773;52.570;13.052;2024-01-16T01:41:45;99778.00;;;6.20
23208;BMP180;11773;52.570;13.052;2024-01-16T01:44:15;99798.00;;;6.20
23208;BMP180;11773;52.570;13.052;2024-01-16T01:46:45;99797.00;;;6.20
23208;BMP180;11773;52.570;13.052;2024-01-16T01:49:15;99807.00;;;6.20
23208;BMP180;11773;52.570;13.052;2024-01-16T01:51:45;99818.00;;;6.20
23208;BMP180;11773;52.570;13.052;2024-01-16T01:54:16;99818.00;;;6.20
23208;BMP180;11773;52.570;13.052;2024-01-16T01:56:48;99810.00;;;6.20
23208;BMP180;11773;52.570;13.052;2024-01-16T01:59:20;99828.00;;;6.20
23208;BMP180;11773;52.570;13.052;2024-01-16T02:01:53;99804.00;;;6.20
23208;BMP180;11773;52.570;13.052;2024-01-16T02:04:25;99801.00;;;6.20
23208;BMP180;11773;52.570;13.052;2024-01-16T02:06:55;99803.00;;;6.10
23208;BMP180;11773;52.570;13.052;2024-01-16T02:09:25;99829.00;;;6.10
23208;BMP180;11773;52.570;13.052;2024-01-16T02:11:55;99826.00;;;6.10
23208;BMP180;11773;52.570;13.052;2024-01-16T02:14:25;99829.00;;;6.10
23208;BMP180;11773;52.570;13.052;2024-01-16T02:16:54;99829.00;;;6.10
23208;BMP180;11773;52.570;13.052;2024-01-16T02:19:24;99832.00;;;6.10
23208;BMP180;11773;52.570;13.052;2024-01-16T02:22:00;99846.00;;;6.10
23208;BMP180;11773;52.570;13.052;2024-01-16T02:24:31;99860.00;;;6.00
23208;BMP180;11773;52.570;13.052;2024-01-16T02:27:00;99856.00;;;6.00
23208;BMP180;11773;52.570;13.052;2024-01-16T02:29:30;99873.00;;;6.00
23208;BMP180;11773;52.570;13.052;2024-01-16T02:32:00;99874.00;;;6.00
23208;BMP180;11773;52.570;13.052;2024-01-16T02:34:31;99895.00;;;6.00
23208;BMP180;11773;52.570;13.052;2024-01-16T02:37:01;99886.00;;;6.00
23208;BMP180;11773;52.570;13.052;2024-01-16T02:39:31;99892.00;;;6.00
23208;BMP180;11773;52.570;13.052;2024-01-16T02:42:00;99904.00;;;6.00
23208;BMP180;11773;52.570;13.052;2024-01-16T02:44:30;99902.00;;;6.10
23208;BMP180;11773;52.570;13.052;2024-01-16T02:47:00;99890.00;;;6.10
23208;BMP180;11773;52.570;13.052;2024-01-16T02:49:29;99896.00;;;6.10
23208;BMP180;11773;52.570;13.052;2024-01-16T02:52:00;99883.00;;;6.00
23208;BMP180;11773;52.570;13.052;2024-01-16T02:54:30;99911.00;;;6.10
23208;BMP180;11773;52.570;13.052;2024-01-16T02:57:00;99910.00;;;6.00
23208;BMP180;11773;52.570;13.052;2024-01-16T02:59:29;99921.00;;;6.00
23208;BMP180;11773;52.570;13.052;2024-01-16T03:01:59;99913.00;;;6.00
23208;BMP180;11773;52.570;13.052;2024-01-16T03:04:30;99912.00;;;6.00
23208;BMP180;11773;52.570;13.052;2024-01-16T03:07:00;99921.00;;;6.00
23208;BMP180;11773;52.570;13.052;2024-01-16T03:09:29;99921.00;;;6.00
23208;BMP180;11773;52.570;13.052;2024-01-16T03:12:00;99930.00;;;6.00
23208;BMP180;11773;52.570;13.052;2024-01-16T03:14:29;99934.00;;;6.00
23208;BMP180;11773;52.570;13.052;2024-01-16T03:17:04;99940.00;;;6.00
23208;BMP180;11773;52.570;13.052;2024-01-16T03:19:35;99952.00;;;6.00
23208;BMP180;11773;52.570;13.052;2024-01-16T03:22:04;99955.00;;;6.00
23208;BMP180;11773;52.570;13.052;2024-01-16T03:24:34;99954.00;;;6.00
23208;BMP180;11773;52.570;13.052;2024-01-16T03:27:04;99960.00;;;6.00
23208;BMP180;11773;52.570;13.052;2024-01-16T03:29:33;99965.00;;;6.00
23208;BMP180;11773;52.570;13.052;2024-01-16T03:32:04;99989.00;;;6.00
23208;BMP180;11773;52.570;13.052;2024-01-16T03:34:33;99981.00;;;6.00
23208;BMP180;11773;52.570;13.052;2024-01-16T03:37:03;99991.00;;;6.00
23208;BMP180;11773;52.570;13.052;2024-01-16T03:39:33;99980.00;;;5.90
23208;BMP180;11773;52.570;13.052;2024-01-16T03:42:02;99969.00;;;5.90
23208;BMP180;11773;52.570;13.052;2024-01-16T03:44:32;99978.00;;;5.90
23208;BMP180;11773;52.570;13.052;2024-01-16T03:47:01;99984.00;;;5.90
23208;BMP180;11773;52.570;13.052;2024-01-16T03:49:31;99988.00;;;5.90
23208;BMP180;11773;52.570;13.052;2024-01-16T03:52:01;99996.00;;;5.90
23208;BMP180;11773;52.570;13.052;2024-01-16T03:54:31;99992.00;;;5.90
23208;BMP180;11773;52.570;13.052;2024-01-16T03:57:01;99999.00;;;5.90
23208;BMP180;11773;52.570;13.052;2024-01-16T03:59:31;100005.00;;;5.90
23208;BMP180;11773;52.570;13.052;2024-01-16T04:02:01;100011.00;;;5.90
23208;BMP180;11773;52.570;13.052;2024-01-16T04:04:31;100007.00;;;5.90
23208;BMP180;11773;52.570;13.052;2024-01-16T04:07:01;100010.00;;;5.90
23208;BMP180;11773;52.570;13.052;2024-01-16T04:09:30;100018.00;;;5.90
23208;BMP180;11773;52.570;13.052;2024-01-16T04:12:00;100005.00;;;5.80
23208;BMP180;11773;52.570;13.052;2024-01-16T04:14:29;100023.00;;;5.90
23208;BMP180;11773;52.570;13.052;2024-01-16T04:16:59;100012.00;;;5.80
23208;BMP180;11773;52.570;13.052;2024-01-16T04:19:29;100004.00;;;5.80
23208;BMP180;11773;52.570;13.052;2024-01-16T04:22:01;100017.00;;;5.80
23208;BMP180;11773;52.570;13.052;2024-01-16T04:24:30;100013.00;;;5.80
23208;BMP180;11773;52.570;13.052;2024-01-16T04:27:00;100020.00;;;5.80
23208;BMP180;11773;52.570;13.052;2024-01-16T04:29:30;100013.00;;;5.80
23208;BMP180;11773;52.570;13.052;2024-01-16T04:32:00;100015.00;;;5.80
23208;BMP180;11773;52.570;13.052;2024-01-16T04:34:30;100021.00;;;5.80
23208;BMP180;11773;52.570;13.052;2024-01-16T04:36:59;100011.00;;;5.80
23208;BMP180;11773;52.570;13.052;2024-01-16T04:39:29;100015.00;;;5.80
23208;BMP180;11773;52.570;13.052;2024-01-16T04:41:59;100022.00;;;5.80
23208;BMP180;11773;52.570;13.052;2024-01-16T04:44:28;100027.00;;;5.80
23208;BMP180;11773;52.570;13.052;2024-01-16T04:46:58;100037.00;;;5.80
23208;BMP180;11773;52.570;13.052;2024-01-16T04:49:27;100029.00;;;5.80
23208;BMP180;11773;52.570;13.052;2024-01-16T04:51:57;100031.00;;;5.80
23208;BMP180;11773;52.570;13.052;2024-01-16T04:54:27;100040.00;;;5.80
23208;BMP180;11773;52.570;13.052;2024-01-16T04:56:56;100041.00;;;5.70
23208;BMP180;11773;52.570;13.052;2024-01-16T04:59:26;100048.00;;;5.70
23208;BMP180;11773;52.570;13.052;2024-01-16T05:01:55;100046.00;;;5.70
23208;BMP180;11773;52.570;13.052;2024-01-16T05:04:25;100039.00;;;5.70
23208;BMP180;11773;52.570;13.052;2024-01-16T05:06:54;100050.00;;;5.70
23208;BMP180;11773;52.570;13.052;2024-01-16T05:09:24;100043.00;;;5.70
23208;BMP180;11773;52.570;13.052;2024-01-16T05:11:54;100043.00;;;5.70
23208;BMP180;11773;52.570;13.052;2024-01-16T05:14:23;100046.00;;;5.70
23208;BMP180;11773;52.570;13.052;2024-01-16T05:16:53;100064.00;;;5.70
23208;BMP180;11773;52.570;13.052;2024-01-16T05:19:23;100062.00;;;5.70
23208;BMP180;11773;52.570;13.052;2024-01-16T05:21:53;100051.00;;;5.70
23208;BMP180;11773;52.570;13.052;2024-01-16T05:24:23;100055.00;;;5.70
23208;BMP180;11773;52.570;13.052;2024-01-16T05:26:53;100061.00;;;5.70
23208;BMP180;11773;52.570;13.052;2024-01-16T05:29:23;100057.00;;;5.60
23208;BMP180;11773;52.570;13.052;2024-01-16T05:31:53;100055.00;;;5.60
23208;BMP180;11773;52.570;13.052;2024-01-16T05:34:23;100060.00;;;5.60
23208;BMP180;11773;52.570;13.052;2024-01-16T05:36:53;100064.00;;;5.60
23208;BMP180;11773;52.570;13.052;2024-01-16T05:39:22;100078.00;;;5.60
23208;BMP180;11773;52.570;13.052;2024-01-16T05:41:52;100077.00;;;5.60
23208;BMP180;11773;52.570;13.052;2024-01-16T05:44:22;100085.00;;;5.60
23208;BMP180;11773;52.570;13.052;2024-01-16T05:46:52;100080.00;;;5.60
23208;BMP180;11773;52.570;13.052;2024-01-16T05:49:21;100093.00;;;5.50
23208;BMP180;11773;52.570;13.052;2024-01-16T05:51:51;100095.00;;;5.60
23208;BMP180;11773;52.570;13.052;2024-01-16T05:54:20;100100.00;;;5.60
23208;BMP180;11773;52.570;13.052;2024-01-16T05:56:50;100105.00;;;5.60
23208;BMP180;11773;52.570;13.052;2024-01-16T05:59:20;100091.00;;;5.60
23208;BMP180;11773;52.570;13.052;2024-01-16T06:01:50;100088.00;;;5.60
23208;BMP180;11773;52.570;13.052;2024-01-16T06:04:19;100091.00;;;5.60
23208;BMP180;11773;52.570;13.052;2024-01-16T06:06:49;100091.00;;;5.60
23208;BMP180;11773;52.570;13.052;2024-01-16T06:09:19;100092.00;;;5.50
23208;BMP180;11773;52.570;13.052;2024-01-16T06:11:48;100099.00;;;5.60
23208;BMP180;11773;52.570;13.052;2024-01-16T06:14:18;100109.00;;;5.60
23208;BMP180;11773;52.570;13.052;2024-01-16T06:16:50;100099.00;;;5.50
23208;BMP180;11773;52.570;13.052;2024-01-16T06:19:19;100098.00;;;5.50
23208;BMP180;11773;52.570;13.052;2024-01-16T06:21:49;100108.00;;;5.50
23208;BMP180;11773;52.570;13.052;2024-01-16T06:24:19;100092.00;;;5.50
23208;BMP180;11773;52.570;13.052;2024-01-16T06:26:48;100099.00;;;5.50
23208;BMP180;11773;52.570;13.052;2024-01-16T06:29:18;100106.00;;;5.50
23208;BMP180;11773;52.570;13.052;2024-01-16T06:31:49;100112.00;;;5.50
23208;BMP180;11773;52.570;13.052;2024-01-16T06:34:19;100109.00;;;5.50
23208;BMP180;11773;52.570;13.052;2024-01-16T06:36:49;100115.00;;;5.50
23208;BMP180;11773;52.570;13.052;2024-01-16T06:39:18;100118.00;;;5.50
23208;BMP180;11773;52.570;13.052;2024-01-16T06:41:48;100127.00;;;5.50
23208;BMP180;11773;52.570;13.052;2024-01-16T06:44:19;100127.00;;;5.50
23208;BMP180;11773;52.570;13.052;2024-01-16T06:46:48;100133.00;;;5.50
23208;BMP180;11773;52.570;13.052;2024-01-16T06:49:37;100137.00;;;5.50
23208;BMP180;11773;52.570;13.052;2024-01-16T06:52:09;100136.00;;;5.50
23208;BMP180;11773;52.570;13.052;2024-01-16T06:54:38;100151.00;;;5.50
23208;BMP180;11773;52.570;13.052;2024-01-16T06:57:08;100147.00;;;5.50
23208;BMP180;11773;52.570;13.052;2024-01-16T06:59:38;100159.00;;;5.50
23208;BMP180;11773;52.570;13.052;2024-01-16T07:02:08;100173.00;;;5.50
23208;BMP180;11773;52.570;13.052;2024-01-16T07:04:37;100164.00;;;5.40
23208;BMP180;11773;52.570;13.052;2024-01-16T07:07:07;100154.00;;;5.40
23208;BMP180;11773;52.570;13.052;2024-01-16T07:09:37;100157.00;;;5.40
23208;BMP180;11773;52.570;13.052;2024-01-16T07:12:06;100173.00;;;5.40
23208;BMP180;11773;52.570;13.052;2024-01-16T07:14:36;100162.00;;;5.40
23208;BMP180;11773;52.570;13.052;2024-01-16T07:17:07;100172.00;;;5.40
23208;BMP180;11773;52.570;13.052;2024-01-16T07:19:36;100178.00;;;5.40
23208;BMP180;11773;52.570;13.052;2024-01-16T07:22:06;100169.00;;;5.40
23208;BMP180;11773;52.570;13.052;2024-01-16T07:24:36;100164.00;;;5.40
23208;BMP180;11773;52.570;13.052;2024-01-16T07:27:05;100163.00;;;5.40
23208;BMP180;11773;52.570;13.052;2024-01-16T07:29:35;100167.00;;;5.40
23208;BMP180;11773;52.570;13.052;2024-01-16T07:32:05;100179.00;;;5.40
23208;BMP180;11773;52.570;13.052;2024-01-16T07:34:35;100177.00;;;5.40
23208;BMP180;11773;52.570;13.052;2024-01-16T07:37:04;100184.00;;;5.40
23208;BMP180;11773;52.570;13.052;2024-01-16T07:39:34;100193.00;;;5.50
23208;BMP180;11773;52.570;13.052;2024-01-16T07:42:04;100188.00;;;5.40
23208;BMP180;11773;52.570;13.052;2024-01-16T07:44:33;100203.00;;;5.50
23208;BMP180;11773;52.570;13.052;2024-01-16T07:47:03;100200.00;;;5.50
23208;BMP180;11773;52.570;13.052;2024-01-16T07:49:33;100195.00;;;5.50
23208;BMP180;11773;52.570;13.052;2024-01-16T07:52:02;100191.00;;;5.50
23208;BMP180;11773;52.570;13.052;2024-01-16T07:54:32;100205.00;;;5.60
23208;BMP180;11773;52.570;13.052;2024-01-16T07:57:01;100208.00;;;5.60
23208;BMP180;11773;52.570;13.052;2024-01-16T07:59:31;100213.00;;;5.60
23208;BMP180;11773;52.570;13.052;2024-01-16T08:02:01;100218.00;;;5.60
23208;BMP180;11773;52.570;13.052;2024-01-16T08:04:31;100207.00;;;5.60
23208;BMP180;11773;52.570;13.052;2024-01-16T08:07:00;100227.00;;;5.60
23208;BMP180;11773;52.570;13.052;2024-01-16T08:09:30;100227.00;;;5.70
23208;BMP180;11773;52.570;13.052;2024-01-16T08:12:00;100218.00;;;5.70
23208;BMP180;11773;52.570;13.052;2024-01-16T08:14:31;100224.00;;;5.70
23208;BMP180;11773;52.570;13.052;2024-01-16T08:17:00;100222.00;;;5.70
23208;BMP180;11773;52.570;13.052;2024-01-16T08:19:30;100233.00;;;5.80
23208;BMP180;11773;52.570;13.052;2024-01-16T08:22:01;100226.00;;;5.80
23208;BMP180;11773;52.570;13.052;2024-01-16T08:24:33;100239.00;;;5.80
23208;BMP180;11773;52.570;13.052;2024-01-16T08:27:02;100243.00;;;5.80
23208;BMP180;11773;52.570;13.052;2024-01-16T08:29:32;100230.00;;;5.80
23208;BMP180;11773;52.570;13.052;2024-01-16T08:32:02;100228.00;;;5.90
23208;BMP180;11773;52.570;13.052;2024-01-16T08:34:32;100222.00;;;5.90
23208;BMP180;11773;52.570;13.052;2024-01-16T08:37:02;100239.00;;;5.90
23208;BMP180;11773;52.570;13.052;2024-01-16T08:39:33;100229.00;;;5.90
23208;BMP180;11773;52.570;13.052;2024-01-16T08:42:02;100228.00;;;6.00
23208;BMP180;11773;52.570;13.052;2024-01-16T08:44:32;100234.00;;;6.00
23208;BMP180;11773;52.570;13.052;2024-01-16T08:47:02;100238.00;;;6.00
23208;BMP180;11773;52.570;13.052;2024-01-16T08:49:33;100229.00;;;6.00
23208;BMP180;11773;52.570;13.052;2024-01-16T08:52:03;100231.00;;;6.10
23208;BMP180;11773;52.570;13.052;2024-01-16T08:54:34;100230.00;;;6.10
23208;BMP180;11773;52.570;13.052;2024-01-16T08:57:03;100233.00;;;6.10
23208;BMP180;11773;52.570;13.052;2024-01-16T08:59:33;100239.00;;;6.10
23208;BMP180;11773;52.570;13.052;2024-01-16T09:02:03;100259.00;;;6.20
23208;BMP180;11773;52.570;13.052;2024-01-16T09:04:33;100231.00;;;6.20
23208;BMP180;11773;52.570;13.052;2024-01-16T09:07:03;100236.00;;;6.20
23208;BMP180;11773;52.570;13.052;2024-01-16T09:09:33;100240.00;;;6.30
23208;BMP180;11773;52.570;13.052;2024-01-16T09:12:03;100252.00;;;6.30
23208;BMP180;11773;52.570;13.052;2024-01-16T09:14:33;100245.00;;;6.30
23208;BMP180;11773;52.570;13.052;2024-01-16T09:17:03;100261.00;;;6.40
23208;BMP180;11773;52.570;13.052;2024-01-16T09:19:32;100260.00;;;6.40
23208;BMP180;11773;52.570;13.052;2024-01-16T09:22:02;100246.00;;;6.40
23208;BMP180;11773;52.570;13.052;2024-01-16T09:24:32;100249.00;;;6.40
23208;BMP180;11773;52.570;13.052;2024-01-16T09:27:02;100250.00;;;6.40
23208;BMP180;11773;52.570;13.052;2024-01-16T09:29:33;100255.00;;;6.40
23208;BMP180;11773;52.570;13.052;2024-01-16T09:32:03;100252.00;;;6.50
23208;BMP180;11773;52.570;13.052;2024-01-16T09:34:33;100254.00;;;6.50
23208;BMP180;11773;52.570;13.052;2024-01-16T09:37:03;100260.00;;;6.60
23208;BMP180;11773;52.570;13.052;2024-01-16T09:39:32;100250.00;;;6.60
23208;BMP180;11773;52.570;13.052;2024-01-16T09:42:03;100242.00;;;6.60
23208;BMP180;11773;52.570;13.052;2024-01-16T09:44:33;100257.00;;;6.70
23208;BMP180;11773;52.570;13.052;2024-01-16T09:47:03;100261.00;;;6.70
23208;BMP180;11773;52.570;13.052;2024-01-16T09:49:36;100263.00;;;6.70
23208;BMP180;11773;52.570;13.052;2024-01-16T09:52:07;100260.00;;;6.80
23208;BMP180;11773;52.570;13.052;2024-01-16T09:54:37;100247.00;;;6.80
23208;BMP180;11773;52.570;13.052;2024-01-16T09:57:08;100250.00;;;6.90
23208;BMP180;11773;52.570;13.052;2024-01-16T09:59:41;100261.00;;;6.90
23208;BMP180;11773;52.570;13.052;2024-01-16T10:02:12;100270.00;;;6.90
23208;BMP180;11773;52.570;13.052;2024-01-16T10:04:43;100264.00;;;7.00
23208;BMP180;11773;52.570;13.052;2024-01-16T10:07:15;100259.00;;;7.00
23208;BMP180;11773;52.570;13.052;2024-01-16T10:09:45;100253.00;;;7.10
23208;BMP180;11773;52.570;13.052;2024-01-16T10:12:15;100254.00;;;7.10
23208;BMP180;11773;52.570;13.052;2024-01-16T10:14:47;100255.00;;;7.20
23208;BMP180;11773;52.570;13.052;2024-01-16T10:17:19;100267.00;;;7.20
23208;BMP180;11773;52.570;13.052;2024-01-16T10:19:53;100269.00;;;7.20
23208;BMP180;11773;52.570;13.052;2024-01-16T10:22:25;100278.00;;;7.30
23208;BMP180;11773;52.570;13.052;2024-01-16T10:25:08;100256.00;;;7.30
23208;BMP180;11773;52.570;13.052;2024-01-16T10:27:40;100252.00;;;7.30
23208;BMP180;11773;52.570;13.052;2024-01-16T10:30:10;100253.00;;;7.30
23208;BMP180;11773;52.570;13.052;2024-01-16T10:32:42;100264.00;;;7.40
23208;BMP180;11773;52.570;13.052;2024-01-16T10:35:14;100271.00;;;7.40
23208;BMP180;11773;52.570;13.052;2024-01-16T10:37:50;100255.00;;;7.40
23208;BMP180;11773;52.570;13.052;2024-01-16T10:40:23;100255.00;;;7.40
23208;BMP180;11773;52.570;13.052;2024-01-16T10:43:03;100253.00;;;7.40
23208;BMP180;11773;52.570;13.052;2024-01-16T10:45:34;100254.00;;;7.40
23208;BMP180;11773;52.570;13.052;2024-01-16T10:48:08;100254.00;;;7.40
23208;BMP180;11773;52.570;13.052;2024-01-16T10:50:39;100272.00;;;7.40
23208;BMP180;11773;52.570;13.052;2024-01-16T10:53:09;100268.00;;;7.40
23208;BMP180;11773;52.570;13.052;2024-01-16T10:55:49;100260.00;;;7.40
23208;BMP180;11773;52.570;13.052;2024-01-16T10:58:22;100259.00;;;7.40
23208;BMP180;11773;52.570;13.052;2024-01-16T11:00:57;100261.00;;;7.40
23208;BMP180;11773;52.570;13.052;2024-01-16T11:03:50;100259.00;;;7.40
23208;BMP180;11773;52.570;13.052;2024-01-16T11:06:21;100273.00;;;7.40
23208;BMP180;11773;52.570;13.052;2024-01-16T11:08:52;100264.00;;;7.40
23208;BMP180;11773;52.570;13.052;2024-01-16T11:11:23;100255.00;;;7.40
23208;BMP180;11773;52.570;13.052;2024-01-16T11:13:55;100268.00;;;7.40
23208;BMP180;11773;52.570;13.052;2024-01-16T11:16:26;100248.00;;;7.40
23208;BMP180;11773;52.570;13.052;2024-01-16T11:18:56;100269.00;;;7.40
23208;BMP180;11773;52.570;13.052;2024-01-16T11:21:28;100257.00;;;7.40
23208;BMP180;11773;52.570;13.052;2024-01-16T11:23:58;100253.00;;;7.40
23208;BMP180;11773;52.570;13.052;2024-01-16T11:26:35;100258.00;;;7.40
23208;BMP180;11773;52.570;13.052;2024-01-16T11:32:01;100246.00;;;7.30
23208;BMP180;11773;52.570;13.052;2024-01-16T11:37:28;100242.00;;;7.30
23208;BMP180;11773;52.570;13.052;2024-01-16T11:40:21;100236.00;;;7.30
23208;BMP180;11773;52.570;13.052;2024-01-16T11:42:53;100229.00;;;7.30
23208;BMP180;11773;52.570;13.052;2024-01-16T11:48:14;100222.00;;;7.30
23208;BMP180;11773;52.570;13.052;2024-01-16T11:50:45;100246.00;;;7.30
23208;BMP180;11773;52.570;13.052;2024-01-16T11:53:37;100234.00;;;7.30
23208;BMP180;11773;52.570;13.052;2024-01-16T11:56:27;100218.00;;;7.30
23208;BMP180;11773;52.570;13.052;2024-01-16T11:59:40;100220.00;;;7.30
23208;BMP180;11773;52.570;13.052;2024-01-16T12:02:14;100224.00;;;7.20
23208;BMP180;11773;52.570;13.052;2024-01-16T12:04:39;100226.00;;;7.20
23208;BMP180;11773;52.570;13.052;2024-01-16T12:07:08;100223.00;;;7.30
23208;BMP180;11773;52.570;13.052;2024-01-16T12:09:39;100234.00;;;7.30
23208;BMP180;11773;52.570;13.052;2024-01-16T12:12:09;100214.00;;;7.30
23208;BMP180;11773;52.570;13.052;2024-01-16T12:14:38;100210.00;;;7.40
23208;BMP180;11773;52.570;13.052;2024-01-16T12:17:13;100237.00;;;7.40
23208;BMP180;11773;52.570;13.052;2024-01-16T12:19:44;100220.00;;;7.40
23208;BMP180;11773;52.570;13.052;2024-01-16T12:22:16;100222.00;;;7.40
23208;BMP180;11773;52.570;13.052;2024-01-16T12:24:47;100220.00;;;7.40
23208;BMP180;11773;52.570;13.052;2024-01-16T12:27:17;100219.00;;;7.50
23208;BMP180;11773;52.570;13.052;2024-01-16T12:29:46;100213.00;;;7.50
23208;BMP180;11773;52.570;13.052;2024-01-16T12:32:16;100215.00;;;7.50
23208;BMP180;11773;52.570;13.052;2024-01-16T12:34:48;100215.00;;;7.50
23208;BMP180;11773;52.570;13.052;2024-01-16T12:37:18;100218.00;;;7.50
23208;BMP180;11773;52.570;13.052;2024-01-16T12:39:48;100213.00;;;7.50
23208;BMP180;11773;52.570;13.052;2024-01-16T12:42:19;100204.00;;;7.50
23208;BMP180;11773;52.570;13.052;2024-01-16T12:44:51;100208.00;;;7.50
23208;BMP180;11773;52.570;13.052;2024-01-16T12:47:20;100210.00;;;7.50
23208;BMP180;11773;52.570;13.052;2024-01-16T12:49:51;100217.00;;;7.50
23208;BMP180;11773;52.570;13.052;2024-01-16T12:52:22;100209.00;;;7.50
23208;BMP180;11773;52.570;13.052;2024-01-16T12:55:03;100223.00;;;7.50
23208;BMP180;11773;52.570;13.052;2024-01-16T12:57:33;100217.00;;;7.50
23208;BMP180;11773;52.570;13.052;2024-01-16T13:00:25;100200.00;;;7.50
23208;BMP180;11773;52.570;13.052;2024-01-16T13:02:54;100203.00;;;7.50
23208;BMP180;11773;52.570;13.052;2024-01-16T13:05:26;100194.00;;;7.50
23208;BMP180;11773;52.570;13.052;2024-01-16T13:08:03;100196.00;;;7.60
23208;BMP180;11773;52.570;13.052;2024-01-16T13:10:33;100200.00;;;7.60
23208;BMP180;11773;52.570;13.052;2024-01-16T13:13:18;100197.00;;;7.60
23208;BMP180;11773;52.570;13.052;2024-01-16T13:15:48;100188.00;;;7.60
23208;BMP180;11773;52.570;13.052;2024-01-16T13:18:24;100186.00;;;7.60
23208;BMP180;11773;52.570;13.052;2024-01-16T13:20:55;100193.00;;;7.60
23208;BMP180;11773;52.570;13.052;2024-01-16T13:23:27;100196.00;;;7.60
23208;BMP180;11773;52.570;13.052;2024-01-16T13:25:57;100188.00;;;7.70
23208;BMP180;11773;52.570;13.052;2024-01-16T13:28:29;100202.00;;;7.70
23208;BMP180;11773;52.570;13.052;2024-01-16T13:30:58;100200.00;;;7.70
23208;BMP180;11773;52.570;13.052;2024-01-16T13:33:28;100205.00;;;7.70
23208;BMP180;11773;52.570;13.052;2024-01-16T13:35:59;100204.00;;;7.70
23208;BMP180;11773;52.570;13.052;2024-01-16T13:38:28;100222.00;;;7.70
23208;BMP180;11773;52.570;13.052;2024-01-16T13:40:58;100216.00;;;7.70
23208;BMP180;11773;52.570;13.052;2024-01-16T13:43:27;100209.00;;;7.70
23208;BMP180;11773;52.570;13.052;2024-01-16T13:45:57;100212.00;;;7.70
23208;BMP180;11773;52.570;13.052;2024-01-16T13:48:27;100216.00;;;7.80
23208;BMP180;11773;52.570;13.052;2024-01-16T13:50:56;100218.00;;;7.80
23208;BMP180;11773;52.570;13.052;2024-01-16T13:53:26;100206.00;;;7.80
23208;BMP180;11773;52.570;13.052;2024-01-16T13:55:55;100213.00;;;7.80
23208;BMP180;11773;52.570;13.052;2024-01-16T13:58:26;100217.00;;;7.80
23208;BMP180;11773;52.570;13.052;2024-01-16T14:00:56;100212.00;;;7.80
23208;BMP180;11773;52.570;13.052;2024-01-16T14:03:26;100209.00;;;7.80
23208;BMP180;11773;52.570;13.052;2024-01-16T14:05:56;100200.00;;;7.80
23208;BMP180;11773;52.570;13.052;2024-01-16T14:08:25;100203.00;;;7.80
23208;BMP180;11773;52.570;13.052;2024-01-16T14:10:55;100202.00;;;7.80
23208;BMP180;11773;52.570;13.052;2024-01-16T14:13:24;100198.00;;;7.80
23208;BMP180;11773;52.570;13.052;2024-01-16T14:15:54;100202.00;;;7.80
23208;BMP180;11773;52.570;13.052;2024-01-16T14:18:25;100222.00;;;7.80
23208;BMP180;11773;52.570;13.052;2024-01-16T14:20:55;100187.00;;;7.80
23208;BMP180;11773;52.570;13.052;2024-01-16T14:23:25;100206.00;;;7.80
23208;BMP180;11773;52.570;13.052;2024-01-16T14:25:54;100204.00;;;7.80
23208;BMP180;11773;52.570;13.052;2024-01-16T14:28:24;100205.00;;;7.80